Terminal Aerodrome Forecast
Issued by NWS Wilmington, OH

Current Version | Previous Version | Graphics & Text | Print | Product List | Glossary On
Versions: 1 2 3 4 5 6 7 8 9 10 11 12 13 14 15 16 17 18 19 20 21 22 23 24
000
FTUS41 KILN 201742
TAFCMH
TAF
KCMH 201742Z 2018/2118 25008KT P6SM SCT040 BKN250
     FM202000 23008KT P6SM VCTS BKN050CB
     FM210200 23006KT P6SM VCSH BKN120
     FM211200 32004KT P6SM BKN035=

USA.gov is the U.S. government's official web portal to all federal, state and local government web resources and services.